»·PEaware :: N732SG KMYF-KSBD

N732SG :: KMYF-KSBD

FLIGHT INFORMATION

Flight Status: Arrived
Operator: Privately registered:
United States
More flights under this callsign
Pilot: Scott G. (88)
Aircraft: CESSNA 172 SKYHAWK
(C172)
More flights by this aircraft type
Origin: KMYF Montgomery
United States
Destination: KSBD San Bernardino Intl
United States
More flights between these airports :: More routes between these airports
Route: +OCN V23 DANAH V363 POXKU V8 PDZ
File this flight plan on PilotEdge
Remarks:
Altitude:
(Current/Filed)
6,000ft
Speed:
(Current/Filed)
120kts
Departed: 06-Jan-17 10:01 AM
Arrived: 06-Jan-17 11:12 AM
Distance/Time
Traveled:
77nm/1:10
Distance/Time
To Go:
Arrived

Flight Plot

Page will automatically refresh every two minutes.


Map Options




Map Legend


Flown Route
Filed Route
Departure Airport
Arrival Airport
Navaid (VOR, NDB)
Fix

Horizontal Profiles

Position Reports

Time Latitude Longitude Heading Altitude Ground
Speed
06-Jan-17 09:28 34.103220 -117.246489 89 1096ft 0kts
06-Jan-17 09:29 34.103220 -117.246489 89 1096ft 0kts
06-Jan-17 09:30 34.103220 -117.246489 89 1096ft 0kts
06-Jan-17 09:31 34.103220 -117.246489 89 1096ft 0kts
06-Jan-17 09:32 34.103220 -117.246489 89 1096ft 0kts
06-Jan-17 09:34 34.103220 -117.246489 89 1096ft 0kts
06-Jan-17 09:35 34.103220 -117.246489 89 1096ft 0kts
06-Jan-17 09:36 34.103220 -117.246489 89 1096ft 0kts
06-Jan-17 09:37 34.103220 -117.246489 89 1096ft 0kts
06-Jan-17 09:38 34.103220 -117.246489 89 1096ft 0kts
06-Jan-17 09:39 32.813146 -117.140696 46 416ft 0kts
06-Jan-17 09:40 32.813146 -117.140696 46 416ft 0kts
06-Jan-17 09:41 32.813146 -117.140696 46 416ft 0kts
06-Jan-17 09:42 32.813176 -117.140663 38 416ft 0kts
06-Jan-17 09:43 32.813176 -117.140663 38 416ft 0kts
06-Jan-17 09:44 32.813176 -117.140663 38 416ft 0kts
06-Jan-17 09:45 32.813176 -117.140663 38 416ft 0kts
06-Jan-17 09:46 32.813176 -117.140663 38 416ft 0kts
06-Jan-17 09:47 32.813176 -117.140663 38 416ft 0kts
06-Jan-17 09:48 32.813176 -117.140663 38 416ft 0kts
06-Jan-17 09:49 32.813176 -117.140663 38 416ft 0kts
06-Jan-17 09:50 32.813176 -117.140663 38 416ft 0kts
06-Jan-17 09:51 32.813176 -117.140663 38 416ft 0kts
06-Jan-17 09:52 32.813176 -117.140663 38 416ft 0kts
06-Jan-17 09:53 32.813878 -117.140830 27 417ft 9kts
06-Jan-17 09:54 32.814047 -117.140729 27 417ft 0kts
06-Jan-17 09:55 32.813774 -117.139239 115 419ft 14kts
06-Jan-17 09:56 32.811668 -117.134021 119 417ft 17kts
06-Jan-17 09:57 32.812016 -117.131181 298 422ft 0kts
06-Jan-17 09:58 32.812016 -117.131181 298 422ft 0kts
06-Jan-17 09:59 32.812041 -117.131247 291 422ft 2kts
06-Jan-17 10:00 32.812372 -117.131262 22 423ft 9kts
06-Jan-17 10:01 32.818084 -117.143969 294 787ft 72kts
06-Jan-17 10:02 32.824119 -117.167488 287 1669ft 76kts
06-Jan-17 10:03 32.829164 -117.185968 284 2315ft 79kts
06-Jan-17 10:04 32.834993 -117.214951 283 2997ft 94kts
06-Jan-17 10:05 32.840718 -117.245036 286 3685ft 98kts
06-Jan-17 10:06 32.853909 -117.269403 338 4411ft 90kts
06-Jan-17 10:07 32.872982 -117.285417 351 5037ft 87kts
06-Jan-17 10:08 32.895887 -117.292895 348 5625ft 88kts
06-Jan-17 10:09 32.915579 -117.299686 347 6031ft 94kts
06-Jan-17 10:10 32.941547 -117.308782 346 6013ft 107kts
06-Jan-17 10:11 32.966101 -117.317487 346 6012ft 108kts
06-Jan-17 10:12 32.988085 -117.325299 346 6012ft 108kts
06-Jan-17 10:13 33.015956 -117.337877 343 6011ft 108kts
06-Jan-17 10:14 33.044375 -117.349052 346 6012ft 108kts
06-Jan-17 10:15 33.072908 -117.360147 348 6012ft 107kts
06-Jan-17 10:16 33.100011 -117.368569 348 6011ft 107kts
06-Jan-17 10:17 33.123657 -117.376244 348 6015ft 108kts
06-Jan-17 10:18 33.151952 -117.385565 348 6016ft 108kts
06-Jan-17 10:19 33.180778 -117.395119 347 6018ft 107kts
06-Jan-17 10:20 33.203187 -117.402523 347 5885ft 117kts
06-Jan-17 10:21 33.231310 -117.411900 347 6021ft 102kts
06-Jan-17 10:22 33.255338 -117.429449 320 6022ft 107kts
06-Jan-17 10:23 33.263230 -117.439266 320 6022ft 107kts
06-Jan-17 10:24 33.273432 -117.451622 320 6023ft 106kts
06-Jan-17 10:25 33.294049 -117.476087 321 6023ft 106kts
06-Jan-17 10:26 33.315196 -117.500882 321 6023ft 106kts
06-Jan-17 10:27 33.336368 -117.525627 321 6023ft 106kts
06-Jan-17 10:28 33.353542 -117.545684 321 6023ft 106kts
06-Jan-17 10:29 33.374737 -117.570446 321 6023ft 106kts
06-Jan-17 10:30 33.396010 -117.595292 321 5995ft 107kts
06-Jan-17 10:31 33.405017 -117.605830 321 5995ft 106kts
06-Jan-17 10:32 33.418564 -117.621688 321 5995ft 107kts
06-Jan-17 10:33 33.436921 -117.643178 322 5994ft 108kts
06-Jan-17 10:34 33.457803 -117.667639 322 5991ft 110kts
06-Jan-17 10:35 33.479717 -117.693179 328 5988ft 112kts
06-Jan-17 10:36 33.509341 -117.699856 347 5994ft 122kts
06-Jan-17 10:37 33.544879 -117.706265 348 5989ft 136kts
06-Jan-17 10:38 33.581661 -117.712538 347 5987ft 135kts
06-Jan-17 10:39 33.618337 -117.718736 347 5987ft 134kts
06-Jan-17 10:40 33.654990 -117.724910 347 5988ft 135kts
06-Jan-17 10:41 33.689161 -117.734780 333 5988ft 123kts
06-Jan-17 10:42 33.720226 -117.750079 331 5989ft 122kts
06-Jan-17 10:43 33.751422 -117.765350 332 5990ft 122kts
06-Jan-17 10:44 33.783290 -117.779274 356 5988ft 126kts
06-Jan-17 10:45 33.814606 -117.780537 3 5981ft 100kts
06-Jan-17 10:46 33.840967 -117.781070 2 5982ft 92kts
06-Jan-17 10:47 33.856692 -117.762072 63 5983ft 93kts
06-Jan-17 10:48 33.865063 -117.732559 65 5985ft 93kts
06-Jan-17 10:49 33.872906 -117.703132 65 5986ft 92kts
06-Jan-17 10:50 33.880749 -117.673582 63 5862ft 101kts
06-Jan-17 10:51 33.889989 -117.639017 68 5369ft 112kts
06-Jan-17 10:52 33.898003 -117.607801 69 4924ft 112kts
06-Jan-17 10:53 33.900978 -117.596161 70 4757ft 111kts
06-Jan-17 10:54 33.904577 -117.581891 68 4559ft 112kts
06-Jan-17 10:55 33.911445 -117.555002 65 5036ft 99kts
06-Jan-17 10:56 33.922661 -117.522501 51 5017ft 108kts
06-Jan-17 10:57 33.940457 -117.492380 51 4837ft 119kts
06-Jan-17 10:58 33.960330 -117.459299 51 4230ft 124kts
06-Jan-17 10:59 33.992662 -117.463328 358 3738ft 119kts
06-Jan-17 11:00 34.024051 -117.465496 0 3745ft 112kts
06-Jan-17 11:01 34.045531 -117.449675 92 3522ft 107kts
06-Jan-17 11:02 34.042700 -117.415963 92 3302ft 103kts
06-Jan-17 11:03 34.049811 -117.388123 69 3302ft 106kts
06-Jan-17 11:04 34.059377 -117.355206 68 2873ft 87kts
06-Jan-17 11:05 34.067242 -117.329604 71 2472ft 90kts
06-Jan-17 11:06 34.075686 -117.300350 70 1976ft 89kts
06-Jan-17 11:07 34.083611 -117.273841 77 1647ft 81kts
06-Jan-17 11:08 34.087589 -117.247172 83 1643ft 80kts
06-Jan-17 11:09 34.091089 -117.220076 75 1655ft 83kts
06-Jan-17 11:10 34.100733 -117.200741 334 1557ft 70kts
06-Jan-17 11:11 34.099556 -117.220600 252 1167ft 55kts
06-Jan-17 11:12 34.099252 -117.225192 282 1143ft 0kts

Navigation Log

Ident Type
Flight plan parsing failed, navigation log unavailable